Pearl River, New York
Current Conditions -  °F | °C
As of 8:51 AM on Saturday 20 Dec 2014 (Local Time) from KTEB Reporting Station
Overcast Overcast  
Wind Chill: 25°   Ceiling: 2600
Heat Index: 31°   Visibility: 10mi
Dew Point: 19°   Wind: 6mph
Humidity: 61%   Direction: 30°NNE
Pressure: 30.28"   Gusts: NA
Location:  41.06°N, 74.02°W
Report Text: KTEB 201351Z 03005KT 10SM OVC026 M01/M07 A3028 RMK AO2 SLP255 T10061072
Loading
Personal Weather Stations






























Interactive Weather Map New forecast layout! Learn more

10-Day Weather Forecast

Advertisements
Track Severe Weather on mobile